createdAt,value
2018-09-23T00:01:02.689Z,100610.83
2018-09-23T00:03:33.689Z,100600.61
2018-09-23T00:06:04.653Z,100607.97
2018-09-23T00:08:35.695Z,100609.19
2018-09-23T00:11:06.718Z,100604.08
2018-09-23T00:13:37.713Z,100600.69
2018-09-23T00:16:08.716Z,100586.11
2018-09-23T00:18:39.739Z,100574.74
2018-09-23T00:21:10.874Z,100569.66
2018-09-23T00:23:41.808Z,100580.90
2018-09-23T00:26:12.790Z,100573.59
2018-09-23T00:28:43.579Z,100589.76
2018-09-23T00:31:14.557Z,100582.63
2018-09-23T00:33:45.712Z,100587.74
2018-09-23T00:36:16.652Z,100585.36
2018-09-23T00:38:58.107Z,100588.18
2018-09-23T00:41:29.426Z,100584.74
2018-09-23T00:44:01.394Z,100581.70
2018-09-23T00:46:32.851Z,100577.47
2018-09-23T00:49:04.278Z,100574.43
2018-09-23T00:51:35.695Z,100569.85
2018-09-23T00:54:07.444Z,100572.72
2018-09-23T00:56:39.421Z,100567.60
2018-09-23T00:59:10.853Z,100572.09
2018-09-23T01:01:42.420Z,100571.02
2018-09-23T01:04:13.689Z,100563.76
2018-09-23T01:06:45.206Z,100561.34
2018-09-23T01:09:17.260Z,100560.29
2018-09-23T01:11:49.408Z,100558.92
2018-09-23T01:14:20.977Z,100555.70
2018-09-23T01:16:52.531Z,100553.28
2018-09-23T01:19:24.017Z,100560.95
2018-09-23T01:21:55.715Z,100549.19
2018-09-23T01:24:27.458Z,100548.80
2018-09-23T01:26:58.810Z,100543.90
2018-09-23T01:29:30.413Z,100544.03
2018-09-23T01:32:01.781Z,100534.30
2018-09-23T01:34:33.214Z,100524.90
2018-09-23T01:37:04.725Z,100527.63
2018-09-23T01:39:36.216Z,100504.56
2018-09-23T01:42:08.207Z,100497.73
2018-09-23T01:44:39.760Z,100495.83
2018-09-23T01:47:11.361Z,100505.09
2018-09-23T01:49:42.800Z,100509.45
2018-09-23T01:52:14.276Z,100512.31
2018-09-23T01:54:45.761Z,100510.53
2018-09-23T01:57:17.308Z,100500.02
2018-09-23T01:59:48.821Z,100516.00
2018-09-23T02:05:01.624Z,100517.76
2018-09-23T02:07:32.890Z,100513.45
2018-09-23T02:10:04.400Z,100515.79
2018-09-23T02:12:35.892Z,100514.64
2018-09-23T02:15:07.855Z,100516.66
2018-09-23T02:17:39.387Z,100510.67
2018-09-23T02:20:10.814Z,100506.23
2018-09-23T02:22:41.901Z,100501.37
2018-09-23T02:25:13.315Z,100494.15
2018-09-23T02:27:44.836Z,100494.80
2018-09-23T02:30:16.642Z,100499.61
2018-09-23T02:32:47.998Z,100497.90
2018-09-23T02:35:19.618Z,100492.78
2018-09-23T02:37:51.721Z,100480.67
2018-09-23T02:40:23.199Z,100474.20
2018-09-23T02:42:54.709Z,100472.27
2018-09-23T02:45:26.284Z,100475.42
2018-09-23T02:47:57.732Z,100476.26
2018-09-23T02:50:29.308Z,100475.75
2018-09-23T02:53:00.747Z,100472.18
2018-09-23T02:55:32.276Z,100474.38
2018-09-23T02:58:03.698Z,100466.59
2018-09-23T03:00:35.312Z,100472.75
2018-09-23T03:03:06.763Z,100465.80
2018-09-23T03:05:38.213Z,100466.14
2018-09-23T03:08:09.707Z,100455.22
2018-09-23T03:10:41.301Z,100457.03
2018-09-23T03:13:12.776Z,100457.86
2018-09-23T03:15:44.206Z,100459.88
2018-09-23T03:18:16.993Z,100468.29
2018-09-23T03:20:48.593Z,100458.39
2018-09-23T03:23:20.195Z,100459.97
2018-09-23T03:25:51.871Z,100450.06
2018-09-23T03:28:23.666Z,100443.19
2018-09-23T03:30:55.331Z,100435.57
2018-09-23T03:33:26.743Z,100431.08
2018-09-23T03:35:58.224Z,100436.67
2018-09-23T03:38:29.692Z,100438.04
2018-09-23T03:41:01.266Z,100437.78
2018-09-23T03:43:32.772Z,100431.29
2018-09-23T03:46:04.281Z,100434.33
2018-09-23T03:48:35.696Z,100429.92
2018-09-23T03:51:07.291Z,100425.43
2018-09-23T03:53:38.744Z,100429.40
2018-09-23T03:56:10.413Z,100418.47
2018-09-23T03:58:41.873Z,100416.98
2018-09-23T04:01:13.405Z,100406.71
2018-09-23T04:03:44.737Z,100409.94
2018-09-23T04:06:16.315Z,100401.44
2018-09-23T04:08:51.406Z,100401.38
2018-09-23T04:11:22.828Z,100393.23
2018-09-23T04:13:54.377Z,100398.70
2018-09-23T04:16:25.668Z,100391.03
2018-09-23T04:18:56.680Z,100387.38
2018-09-23T04:21:28.194Z,100393.89
2018-09-23T04:23:59.712Z,100395.57
2018-09-23T04:26:31.277Z,100394.91
2018-09-23T04:29:02.815Z,100394.56
2018-09-23T04:31:34.307Z,100404.25
2018-09-23T04:34:05.769Z,100402.27
2018-09-23T04:36:37.323Z,100388.18
2018-09-23T04:39:11.882Z,100382.14
2018-09-23T04:41:43.440Z,100375.31
2018-09-23T04:44:14.783Z,100378.41
2018-09-23T04:46:46.636Z,100369.59
2018-09-23T04:49:17.939Z,100381.80
2018-09-23T04:51:48.526Z,100379.54
2018-09-23T04:54:19.972Z,100385.00
2018-09-23T04:56:50.549Z,100374.97
2018-09-23T04:59:22.197Z,100374.66
2018-09-23T05:01:53.736Z,100372.64
2018-09-23T05:04:25.214Z,100364.62
2018-09-23T05:06:56.702Z,100376.78
2018-09-23T05:09:28.204Z,100370.83
2018-09-23T05:11:59.717Z,100369.51
2018-09-23T05:14:30.804Z,100358.27
2018-09-23T05:17:01.796Z,100361.31
2018-09-23T05:19:32.863Z,100361.84
2018-09-23T05:22:04.730Z,100364.62
2018-09-23T05:24:36.293Z,100362.51
2018-09-23T05:27:07.603Z,100361.27
2018-09-23T05:29:38.639Z,100363.22
2018-09-23T05:32:09.901Z,100354.63
2018-09-23T05:34:41.324Z,100345.73
2018-09-23T05:37:12.809Z,100340.98
2018-09-23T05:39:43.875Z,100335.83
2018-09-23T05:42:15.725Z,100325.16
2018-09-23T05:44:47.393Z,100323.80
2018-09-23T05:47:18.900Z,100316.72
2018-09-23T05:49:50.274Z,100312.31
2018-09-23T05:52:21.713Z,100311.38
2018-09-23T05:54:53.198Z,100304.06
2018-09-23T05:57:24.717Z,100305.09
2018-09-23T05:59:56.585Z,100295.98
2018-09-23T06:02:28.226Z,100305.17
2018-09-23T06:04:59.692Z,100311.78
2018-09-23T06:07:31.195Z,100320.45
2018-09-23T06:10:02.695Z,100312.51
2018-09-23T06:12:34.200Z,100314.00
2018-09-23T06:15:05.623Z,100303.64
2018-09-23T06:17:36.995Z,100280.30
2018-09-23T06:20:08.615Z,100298.05
2018-09-23T06:22:40.014Z,100302.20
2018-09-23T06:25:11.618Z,100293.77
2018-09-23T06:27:43.338Z,100292.62
2018-09-23T06:30:15.201Z,100300.41
2018-09-23T06:32:46.734Z,100299.88
2018-09-23T06:35:18.298Z,100291.69
2018-09-23T06:37:49.712Z,100293.45
2018-09-23T06:40:21.304Z,100300.22
2018-09-23T06:42:52.814Z,100300.97
2018-09-23T06:45:24.205Z,100296.75
2018-09-23T06:47:55.639Z,100296.31
2018-09-23T06:50:26.873Z,100294.11
2018-09-23T06:52:58.420Z,100276.55
2018-09-23T06:55:29.856Z,100277.20
2018-09-23T06:58:01.381Z,100281.98
2018-09-23T07:00:33.196Z,100285.89
2018-09-23T07:03:04.708Z,100287.13
2018-09-23T07:05:36.215Z,100285.64
2018-09-23T07:08:07.814Z,100293.52
2018-09-23T07:10:39.412Z,100298.64
2018-09-23T07:13:10.880Z,100309.28
2018-09-23T07:15:42.489Z,100304.16
2018-09-23T07:18:15.379Z,100287.84
2018-09-23T07:20:46.981Z,100271.86
2018-09-23T07:23:18.537Z,100275.25
2018-09-23T07:25:50.027Z,100275.95
2018-09-23T07:28:22.460Z,100270.68
2018-09-23T07:30:53.865Z,100283.31
2018-09-23T07:33:25.525Z,100278.03
2018-09-23T07:35:56.864Z,100287.47
2018-09-23T07:38:28.309Z,100297.98
2018-09-23T07:40:59.846Z,100296.36
2018-09-23T07:43:31.744Z,100297.55
2018-09-23T07:46:02.872Z,100307.81
2018-09-23T07:48:34.013Z,100302.70
2018-09-23T07:51:05.587Z,100274.52
2018-09-23T07:53:36.889Z,100269.80
2018-09-23T07:56:08.739Z,100268.88
2018-09-23T07:58:40.307Z,100260.28
2018-09-23T08:01:11.965Z,100273.28
2018-09-23T08:03:44.213Z,100271.30
2018-09-23T08:06:15.707Z,100276.23
2018-09-23T08:08:47.377Z,100273.28
2018-09-23T08:11:18.903Z,100262.23
2018-09-23T08:13:50.696Z,100271.48
2018-09-23T08:16:22.073Z,100264.13
2018-09-23T08:18:53.671Z,100254.80
2018-09-23T08:21:25.662Z,100243.00
2018-09-23T08:23:57.425Z,100238.59
2018-09-23T08:26:28.898Z,100225.78
2018-09-23T08:29:00.429Z,100216.16
2018-09-23T08:31:31.757Z,100209.24
2018-09-23T08:34:02.771Z,100208.62
2018-09-23T08:36:33.748Z,100209.98
2018-09-23T08:39:06.593Z,100211.85
2018-09-23T08:41:38.214Z,100216.59
2018-09-23T08:44:10.003Z,100219.30
2018-09-23T08:46:41.505Z,100215.11
2018-09-23T08:49:13.615Z,100212.47
2018-09-23T08:51:45.432Z,100221.41
2018-09-23T08:54:16.895Z,100216.69
2018-09-23T08:56:49.417Z,100221.50
2018-09-23T08:59:21.704Z,100211.85
2018-09-23T09:01:53.232Z,100213.87
2018-09-23T09:04:24.709Z,100199.31
2018-09-23T09:06:56.211Z,100188.73
2018-09-23T09:09:27.721Z,100182.34
2018-09-23T09:11:59.222Z,100176.81
2018-09-23T09:14:30.785Z,100164.00
2018-09-23T09:17:02.230Z,100157.17
2018-09-23T09:19:33.816Z,100170.64
2018-09-23T09:22:05.209Z,100164.55
2018-09-23T09:24:36.724Z,100160.58
2018-09-23T09:27:08.666Z,100150.06
2018-09-23T09:29:39.899Z,100157.48
2018-09-23T09:32:12.287Z,100157.72
2018-09-23T09:34:43.876Z,100140.62
2018-09-23T09:37:15.708Z,100134.63
2018-09-23T09:39:47.216Z,100117.41
2018-09-23T09:42:18.778Z,100111.76
2018-09-23T09:44:50.313Z,100118.77
2018-09-23T09:47:21.718Z,100115.86
2018-09-23T09:49:53.203Z,100101.95
2018-09-23T09:52:24.852Z,100100.08
2018-09-23T09:54:56.737Z,100094.63
2018-09-23T09:57:28.198Z,100078.61
2018-09-23T09:59:59.724Z,100077.89
2018-09-23T10:02:31.420Z,100067.69
2018-09-23T10:05:02.889Z,100083.81
2018-09-23T10:07:34.580Z,100081.50
2018-09-23T10:10:05.972Z,100081.80
2018-09-23T10:12:37.520Z,100072.36
2018-09-23T10:15:09.221Z,100067.42
2018-09-23T10:17:41.372Z,100066.09
2018-09-23T10:20:12.563Z,100063.24
2018-09-23T10:22:43.776Z,100048.11
2018-09-23T10:25:14.679Z,100057.33
2018-09-23T10:27:45.670Z,100049.36
2018-09-23T10:30:16.860Z,100039.05
2018-09-23T10:32:47.987Z,100031.91
2018-09-23T10:35:18.498Z,100027.92
2018-09-23T10:37:49.899Z,100027.81
2018-09-23T10:40:21.390Z,100010.58
2018-09-23T10:42:52.792Z,99991.99
2018-09-23T10:45:24.429Z,99980.53
2018-09-23T10:47:55.787Z,99975.27
2018-09-23T10:50:27.200Z,99975.59
2018-09-23T10:52:58.765Z,99984.63
2018-09-23T10:55:29.901Z,99979.17
2018-09-23T10:58:01.243Z,99959.52
2018-09-23T11:00:32.808Z,99954.58
2018-09-23T11:03:04.303Z,99942.82
2018-09-23T11:05:35.768Z,99941.65
2018-09-23T11:08:06.889Z,99928.33
2018-09-23T11:10:38.050Z,99925.90
2018-09-23T11:13:09.764Z,99915.27
2018-09-23T11:15:41.289Z,99913.20
2018-09-23T11:18:12.635Z,99896.89
2018-09-23T11:23:26.655Z,99880.92
2018-09-23T11:25:57.827Z,99851.84
2018-09-23T11:28:29.243Z,99828.81
2018-09-23T11:31:00.671Z,99824.83
2018-09-23T11:33:32.218Z,99826.39
2018-09-23T11:36:03.711Z,99821.98
2018-09-23T11:38:34.930Z,99825.89
2018-09-23T11:41:05.571Z,99834.28
2018-09-23T11:43:36.812Z,99833.32
2018-09-23T11:46:08.202Z,99817.16
2018-09-23T11:48:39.951Z,99798.87
2018-09-23T11:51:10.581Z,99781.77
2018-09-23T11:53:42.241Z,99772.72
2018-09-23T11:56:13.723Z,99767.12
2018-09-23T11:58:45.298Z,99753.83
2018-09-23T12:01:16.799Z,99751.83
2018-09-23T12:03:47.841Z,99743.54
2018-09-23T12:06:19.355Z,99733.98
2018-09-23T12:08:50.792Z,99722.09
2018-09-23T12:11:21.814Z,99716.43
2018-09-23T12:13:52.762Z,99709.27
2018-09-23T12:16:24.214Z,99690.15
2018-09-23T12:18:55.750Z,99668.53
2018-09-23T12:21:27.204Z,99661.70
2018-09-23T12:23:58.782Z,99650.02
2018-09-23T12:26:37.601Z,99633.54
2018-09-23T12:29:09.398Z,99608.67
2018-09-23T12:31:40.751Z,99609.64
2018-09-23T12:34:11.908Z,99595.02
2018-09-23T12:36:43.396Z,99583.80
2018-09-23T12:39:14.779Z,99574.25
2018-09-23T12:41:46.346Z,99564.59
2018-09-23T12:44:17.780Z,99539.93
2018-09-23T12:46:49.219Z,99517.61
2018-09-23T12:49:20.997Z,99510.25
2018-09-23T12:51:52.662Z,99507.72
2018-09-23T12:54:24.537Z,99487.05
2018-09-23T12:56:55.872Z,99492.08
2018-09-23T12:59:27.572Z,99476.88
2018-09-23T13:01:58.856Z,99464.93
2018-09-23T13:04:30.213Z,99462.64
2018-09-23T13:07:02.286Z,99459.05
2018-09-23T13:09:33.891Z,99457.57
2018-09-23T13:12:05.329Z,99452.76
2018-09-23T13:14:36.862Z,99455.09
2018-09-23T13:17:08.316Z,99443.53
2018-09-23T13:19:39.995Z,99442.17
2018-09-23T13:22:11.472Z,99440.82
2018-09-23T13:24:42.743Z,99430.00
2018-09-23T13:27:14.417Z,99407.25
2018-09-23T13:29:45.993Z,99395.41
2018-09-23T13:32:17.714Z,99383.75
2018-09-23T13:34:49.302Z,99383.22
2018-09-23T13:37:21.797Z,99400.63
2018-09-23T13:39:53.223Z,99404.13
2018-09-23T13:42:24.763Z,99405.41
2018-09-23T13:44:56.295Z,99438.64
2018-09-23T13:47:27.824Z,99446.53
2018-09-23T13:49:59.279Z,99436.45
2018-09-23T13:52:30.756Z,99425.05
2018-09-23T13:55:02.419Z,99410.88
2018-09-23T13:57:33.786Z,99370.97
2018-09-23T14:00:05.292Z,99345.19
2018-09-23T14:02:36.761Z,99341.01
2018-09-23T14:05:08.370Z,99316.03
2018-09-23T14:07:39.751Z,99305.57
2018-09-23T14:10:10.730Z,99295.30
2018-09-23T14:12:41.883Z,99284.22
2018-09-23T14:15:13.413Z,99272.18
2018-09-23T14:17:44.770Z,99267.02
2018-09-23T14:20:16.038Z,99246.89
2018-09-23T14:22:47.727Z,99224.45
2018-09-23T14:25:19.213Z,99235.16
2018-09-23T14:27:50.678Z,99238.30
2018-09-23T14:30:22.297Z,99216.89
2018-09-23T14:32:53.652Z,99194.81
2018-09-23T14:35:25.265Z,99193.52
2018-09-23T14:37:56.681Z,99189.00
2018-09-23T14:40:28.205Z,99170.98
2018-09-23T14:42:59.698Z,99168.70
2018-09-23T14:45:31.215Z,99140.29
2018-09-23T14:48:02.777Z,99108.73
2018-09-23T14:50:34.021Z,99099.02
2018-09-23T14:53:05.696Z,99110.66
2018-09-23T14:55:37.381Z,99109.04
2018-09-23T14:58:09.869Z,99107.14
2018-09-23T15:00:41.381Z,99095.33
2018-09-23T15:03:12.769Z,99077.38
2018-09-23T15:05:44.238Z,99051.27
2018-09-23T15:08:15.706Z,99062.00
2018-09-23T15:10:47.206Z,99074.64
2018-09-23T15:13:18.753Z,99055.43
2018-09-23T15:15:50.351Z,99026.56
2018-09-23T15:18:21.836Z,99070.17
2018-09-23T15:20:53.408Z,99075.16
2018-09-23T15:23:24.786Z,99074.00
2018-09-23T15:25:56.327Z,99063.90
2018-09-23T15:28:27.749Z,99083.95
2018-09-23T15:30:59.185Z,99098.32
2018-09-23T15:33:30.638Z,99128.91
2018-09-23T15:36:02.326Z,99188.62
2018-09-23T15:38:34.067Z,99210.85
2018-09-23T15:41:05.839Z,99160.11
2018-09-23T15:43:38.225Z,99169.30
2018-09-23T15:46:10.199Z,99151.02
2018-09-23T15:48:42.241Z,99131.77
2018-09-23T15:51:14.555Z,99172.55
2018-09-23T15:53:46.729Z,99189.97
2018-09-23T15:56:19.044Z,99141.27
2018-09-23T15:58:51.386Z,99106.84
2018-09-23T16:01:23.888Z,99089.43
2018-09-23T16:03:55.934Z,99103.95
2018-09-23T16:06:26.923Z,99066.45
2018-09-23T16:08:58.858Z,99054.89
2018-09-23T16:11:31.598Z,99035.20
2018-09-23T16:14:03.765Z,99021.04
2018-09-23T16:16:35.849Z,98996.67
2018-09-23T16:19:07.863Z,98958.69
2018-09-23T16:21:39.748Z,98924.31
2018-09-23T16:24:11.944Z,98969.35
2018-09-23T16:26:43.959Z,99009.66
2018-09-23T16:29:14.876Z,99063.75
2018-09-23T16:31:46.880Z,99074.27
2018-09-23T16:34:18.897Z,99115.59
2018-09-23T16:36:51.060Z,99114.52
2018-09-23T16:39:23.386Z,99053.00
2018-09-23T16:41:55.599Z,98982.36
2018-09-23T16:44:27.788Z,98937.64
2018-09-23T16:46:59.601Z,98974.63
2018-09-23T16:49:31.796Z,98987.14
2018-09-23T16:52:03.775Z,99004.52
2018-09-23T16:54:35.791Z,99069.83
2018-09-23T16:57:07.974Z,99115.59
2018-09-23T16:59:39.020Z,99095.33
2018-09-23T17:02:11.187Z,99124.23
2018-09-23T17:04:43.267Z,99163.75
2018-09-23T17:07:15.340Z,99209.34
2018-09-23T17:09:47.649Z,99231.15
2018-09-23T17:12:19.848Z,99244.87
2018-09-23T17:14:51.956Z,99226.95
2018-09-23T17:17:24.218Z,99210.16
2018-09-23T17:19:56.407Z,99218.97
2018-09-23T17:22:28.555Z,99249.78
2018-09-23T17:25:00.561Z,99270.95
2018-09-23T17:27:32.786Z,99249.92
2018-09-23T17:30:05.029Z,99229.05
2018-09-23T17:32:36.916Z,99250.62
2018-09-23T17:35:08.873Z,99314.37
2018-09-23T17:37:40.872Z,99395.61
2018-09-23T17:40:12.890Z,99420.77
2018-09-23T17:42:44.881Z,99426.52
2018-09-23T17:45:17.022Z,99415.95
2018-09-23T17:47:49.248Z,99403.45
2018-09-23T17:50:21.625Z,99437.63
2018-09-23T17:52:53.399Z,99467.02
2018-09-23T17:55:25.923Z,99455.14
2018-09-23T17:57:56.825Z,99444.47
2018-09-23T18:00:28.778Z,99425.29
2018-09-23T18:03:01.219Z,99431.77
2018-09-23T18:05:33.400Z,99414.69
2018-09-23T18:08:05.427Z,99403.25
2018-09-23T18:10:37.354Z,99389.42
2018-09-23T18:13:09.504Z,99424.56
2018-09-23T18:15:41.839Z,99472.86
2018-09-23T18:18:13.701Z,99513.45
2018-09-23T18:20:45.600Z,99554.87
2018-09-23T18:23:17.770Z,99565.24
2018-09-23T18:25:49.900Z,99553.38
2018-09-23T18:28:23.221Z,99509.56
2018-09-23T18:30:55.500Z,99543.34
2018-09-23T18:33:27.753Z,99507.57
2018-09-23T18:35:59.837Z,99520.99
2018-09-23T18:38:32.230Z,99533.89
2018-09-23T18:41:04.639Z,99523.31
2018-09-23T18:43:36.876Z,99554.74
2018-09-23T18:46:09.058Z,99596.87
2018-09-23T18:48:41.640Z,99650.55
2018-09-23T18:51:14.214Z,99706.13
2018-09-23T18:54:53.222Z,99716.42
2018-09-23T18:57:26.213Z,99708.24
2018-09-23T18:59:58.326Z,99691.24
2018-09-23T19:02:31.812Z,99737.05
2018-09-23T19:05:05.414Z,99739.66
2018-09-23T19:07:38.190Z,99738.00
2018-09-23T19:10:10.598Z,99746.59
2018-09-23T19:12:45.852Z,99753.14
2018-09-23T19:15:18.403Z,99714.53
2018-09-23T19:17:51.213Z,99720.28
2018-09-23T19:20:23.795Z,99755.72
2018-09-23T19:23:00.967Z,99748.06
2018-09-23T19:25:32.081Z,99754.77
2018-09-23T19:28:04.555Z,99802.27
2018-09-23T19:30:36.766Z,99802.27
2018-09-23T19:33:09.040Z,99752.34
2018-09-23T19:35:41.222Z,99757.19
2018-09-23T19:38:13.942Z,99769.95
2018-09-23T19:40:45.543Z,99740.15
2018-09-23T19:43:18.179Z,99832.81
2018-09-23T19:45:51.286Z,99824.39
2018-09-23T19:48:23.984Z,99869.81
2018-09-23T19:50:55.422Z,99836.59
2018-09-23T19:53:28.235Z,99876.47
2018-09-23T19:56:00.498Z,99881.09
2018-09-23T19:58:32.732Z,99898.78
2018-09-23T20:01:04.823Z,99909.27
2018-09-23T20:03:37.201Z,99922.84
2018-09-23T20:06:09.802Z,99940.73
2018-09-23T20:08:42.329Z,99968.05
2018-09-23T20:11:15.200Z,99999.91
2018-09-23T20:13:47.553Z,100004.13
2018-09-23T20:16:19.817Z,100010.75
2018-09-23T20:18:52.248Z,100020.59
2018-09-23T20:21:24.802Z,100055.77
2018-09-23T20:23:57.421Z,100073.08
2018-09-23T20:26:31.241Z,100083.36
2018-09-23T20:29:03.506Z,100097.69
2018-09-23T20:31:35.918Z,100114.36
2018-09-23T20:34:07.404Z,100108.86
2018-09-23T20:36:39.974Z,100113.65
2018-09-23T20:39:12.782Z,100103.53
2018-09-23T20:41:45.299Z,100138.75
2018-09-23T20:44:18.223Z,100147.97
2018-09-23T20:46:50.434Z,100140.91
2018-09-23T20:49:23.235Z,100160.76
2018-09-23T20:51:55.530Z,100176.15
2018-09-23T20:54:27.778Z,100181.91
2018-09-23T20:57:00.301Z,100181.91
2018-09-23T20:59:32.497Z,100193.86
2018-09-23T21:02:04.963Z,100201.03
2018-09-23T21:04:36.844Z,100199.53
2018-09-23T21:07:09.424Z,100212.80
2018-09-23T21:09:42.334Z,100233.69
2018-09-23T21:12:14.716Z,100239.32
2018-09-23T21:14:47.585Z,100245.50
2018-09-23T21:17:19.843Z,100247.98
2018-09-23T21:19:51.761Z,100251.93
2018-09-23T21:22:23.706Z,100253.61
2018-09-23T21:24:56.040Z,100261.47
2018-09-23T21:27:28.513Z,100262.12
2018-09-23T21:30:00.705Z,100269.44
2018-09-23T21:32:32.804Z,100269.41
2018-09-23T21:35:04.937Z,100283.66
2018-09-23T21:37:36.827Z,100290.78
2018-09-23T21:40:09.099Z,100294.34
2018-09-23T21:42:41.346Z,100312.41
2018-09-23T21:45:13.871Z,100312.91
2018-09-23T21:47:46.236Z,100312.27
2018-09-23T21:50:18.017Z,100322.51
2018-09-23T21:52:51.234Z,100327.58
2018-09-23T21:55:34.905Z,100334.53
2018-09-23T21:58:06.865Z,100344.21
2018-09-23T22:00:43.038Z,100346.94
2018-09-23T22:03:16.538Z,100357.31
2018-09-23T22:05:48.817Z,100369.05
2018-09-23T22:08:21.345Z,100383.03
2018-09-23T22:10:53.630Z,100389.18
2018-09-23T22:13:25.740Z,100389.56
2018-09-23T22:15:57.576Z,100392.08
2018-09-23T22:18:28.673Z,100399.53
2018-09-23T22:20:59.690Z,100396.59
2018-09-23T22:23:30.779Z,100404.14
2018-09-23T22:26:01.611Z,100406.52
2018-09-23T22:28:33.742Z,100413.33
2018-09-23T22:31:04.869Z,100407.15
2018-09-23T22:33:35.895Z,100418.61
2018-09-23T22:36:06.975Z,100421.05
2018-09-23T22:38:37.444Z,100429.37
2018-09-23T22:41:09.269Z,100438.06
2018-09-23T22:43:40.507Z,100438.00
2018-09-23T22:46:11.695Z,100434.03
2018-09-23T22:48:42.878Z,100440.18
2018-09-23T22:51:14.312Z,100444.27
2018-09-23T22:53:45.870Z,100450.01
2018-09-23T22:56:17.557Z,100458.56
2018-09-23T22:58:48.976Z,100457.90
2018-09-23T23:01:19.669Z,100464.05
2018-09-23T23:03:51.206Z,100471.38
2018-09-23T23:06:22.693Z,100469.33
2018-09-23T23:08:54.194Z,100476.66
2018-09-23T23:11:25.807Z,100476.31
2018-09-23T23:13:57.349Z,100473.30
2018-09-23T23:16:28.820Z,100488.78
2018-09-23T23:19:00.312Z,100483.65
2018-09-23T23:21:31.802Z,100491.52
2018-09-23T23:24:03.288Z,100499.55
2018-09-23T23:26:34.829Z,100500.84
2018-09-23T23:29:06.311Z,100512.13
2018-09-23T23:31:37.853Z,100512.13
2018-09-23T23:34:09.409Z,100518.09
2018-09-23T23:36:41.064Z,100533.94
2018-09-23T23:39:12.730Z,100542.09
2018-09-23T23:41:43.940Z,100549.62
2018-09-23T23:44:14.612Z,100551.66
2018-09-23T23:46:46.223Z,100556.44
2018-09-23T23:49:17.746Z,100569.69
2018-09-23T23:51:49.319Z,100569.54
2018-09-23T23:54:20.773Z,100582.01
2018-09-23T23:56:52.306Z,100593.06
2018-09-23T23:59:23.721Z,100609.06
